sensor_id;sensor_type;location;lat;lon;timestamp;P1;durP1;ratioP1;P2;durP2;ratioP2
41115;SDS011;26861;51.824;4.682;2022-09-03T00:00:40;2.38;;;1.10;;
41115;SDS011;26861;51.824;4.682;2022-09-03T00:03:19;1.45;;;0.80;;
41115;SDS011;26861;51.824;4.682;2022-09-03T00:08:27;1.38;;;0.70;;
41115;SDS011;26861;51.824;4.682;2022-09-03T00:13:28;1.40;;;1.00;;
41115;SDS011;26861;51.824;4.682;2022-09-03T00:15:57;1.35;;;0.90;;
41115;SDS011;26861;51.824;4.682;2022-09-03T00:18:31;1.05;;;0.75;;
41115;SDS011;26861;51.824;4.682;2022-09-03T00:21:09;2.30;;;0.80;;
41115;SDS011;26861;51.824;4.682;2022-09-03T00:23:47;3.90;;;1.10;;
41115;SDS011;26861;51.824;4.682;2022-09-03T00:26:17;0.93;;;0.70;;
41115;SDS011;26861;51.824;4.682;2022-09-03T00:28:53;1.13;;;0.80;;
41115;SDS011;26861;51.824;4.682;2022-09-03T00:33:51;2.22;;;0.88;;
41115;SDS011;26861;51.824;4.682;2022-09-03T00:36:53;0.70;;;0.70;;
41115;SDS011;26861;51.824;4.682;2022-09-03T00:39:14;2.10;;;0.90;;
41115;SDS011;26861;51.824;4.682;2022-09-03T00:57:26;0.85;;;0.70;;
41115;SDS011;26861;51.824;4.682;2022-09-03T01:00:10;2.03;;;0.75;;
41115;SDS011;26861;51.824;4.682;2022-09-03T01:05:10;1.35;;;0.90;;
41115;SDS011;26861;51.824;4.682;2022-09-03T01:13:40;0.73;;;0.50;;
41115;SDS011;26861;51.824;4.682;2022-09-03T01:16:21;1.13;;;0.75;;
41115;SDS011;26861;51.824;4.682;2022-09-03T01:30:09;0.93;;;0.88;;
41115;SDS011;26861;51.824;4.682;2022-09-03T01:35:17;0.90;;;0.70;;
41115;SDS011;26861;51.824;4.682;2022-09-03T01:46:38;1.00;;;0.52;;
41115;SDS011;26861;51.824;4.682;2022-09-03T01:49:14;1.17;;;0.80;;
41115;SDS011;26861;51.824;4.682;2022-09-03T01:52:12;1.05;;;0.63;;
41115;SDS011;26861;51.824;4.682;2022-09-03T01:54:47;0.75;;;0.60;;
41115;SDS011;26861;51.824;4.682;2022-09-03T02:02:38;1.42;;;0.60;;
41115;SDS011;26861;51.824;4.682;2022-09-03T02:10:06;1.35;;;0.70;;
41115;SDS011;26861;51.824;4.682;2022-09-03T02:15:03;0.70;;;0.68;;
41115;SDS011;26861;51.824;4.682;2022-09-03T02:17:36;1.67;;;0.75;;
41115;SDS011;26861;51.824;4.682;2022-09-03T02:20:05;1.50;;;1.10;;
41115;SDS011;26861;51.824;4.682;2022-09-03T02:22:35;1.40;;;0.65;;
41115;SDS011;26861;51.824;4.682;2022-09-03T02:25:02;0.88;;;0.70;;
41115;SDS011;26861;51.824;4.682;2022-09-03T02:27:28;0.90;;;0.65;;
41115;SDS011;26861;51.824;4.682;2022-09-03T02:29:55;0.68;;;0.65;;
41115;SDS011;26861;51.824;4.682;2022-09-03T02:32:22;1.23;;;0.43;;
41115;SDS011;26861;51.824;4.682;2022-09-03T02:34:48;0.60;;;0.45;;
41115;SDS011;26861;51.824;4.682;2022-09-03T02:37:14;0.90;;;0.57;;
41115;SDS011;26861;51.824;4.682;2022-09-03T02:39:42;1.95;;;0.82;;
41115;SDS011;26861;51.824;4.682;2022-09-03T02:42:08;0.75;;;0.70;;
41115;SDS011;26861;51.824;4.682;2022-09-03T02:44:36;0.82;;;0.70;;
41115;SDS011;26861;51.824;4.682;2022-09-03T02:47:07;0.88;;;0.65;;
41115;SDS011;26861;51.824;4.682;2022-09-03T02:49:33;1.05;;;0.55;;
41115;SDS011;26861;51.824;4.682;2022-09-03T02:52:00;2.38;;;0.85;;
41115;SDS011;26861;51.824;4.682;2022-09-03T02:54:33;1.80;;;0.70;;
41115;SDS011;26861;51.824;4.682;2022-09-03T02:57:03;1.05;;;0.60;;
41115;SDS011;26861;51.824;4.682;2022-09-03T02:59:29;0.80;;;0.80;;
41115;SDS011;26861;51.824;4.682;2022-09-03T03:01:55;1.75;;;0.75;;
41115;SDS011;26861;51.824;4.682;2022-09-03T03:04:21;0.80;;;0.60;;
41115;SDS011;26861;51.824;4.682;2022-09-03T03:06:47;1.25;;;0.57;;
41115;SDS011;26861;51.824;4.682;2022-09-03T03:09:15;1.15;;;0.80;;
41115;SDS011;26861;51.824;4.682;2022-09-03T03:11:41;0.60;;;0.60;;
41115;SDS011;26861;51.824;4.682;2022-09-03T03:14:07;1.17;;;0.68;;
41115;SDS011;26861;51.824;4.682;2022-09-03T03:16:33;0.77;;;0.60;;
41115;SDS011;26861;51.824;4.682;2022-09-03T03:18:59;1.10;;;0.70;;
41115;SDS011;26861;51.824;4.682;2022-09-03T03:21:25;2.47;;;0.88;;
41115;SDS011;26861;51.824;4.682;2022-09-03T03:23:51;0.57;;;0.57;;
41115;SDS011;26861;51.824;4.682;2022-09-03T03:26:18;1.20;;;0.70;;
41115;SDS011;26861;51.824;4.682;2022-09-03T03:28:48;0.88;;;0.75;;
41115;SDS011;26861;51.824;4.682;2022-09-03T03:31:15;2.70;;;0.50;;
41115;SDS011;26861;51.824;4.682;2022-09-03T03:33:43;1.08;;;0.77;;
41115;SDS011;26861;51.824;4.682;2022-09-03T03:36:13;1.50;;;0.80;;
41115;SDS011;26861;51.824;4.682;2022-09-03T03:41:09;1.60;;;0.70;;
41115;SDS011;26861;51.824;4.682;2022-09-03T03:43:43;1.23;;;0.73;;
41115;SDS011;26861;51.824;4.682;2022-09-03T03:46:09;0.80;;;0.80;;
41115;SDS011;26861;51.824;4.682;2022-09-03T03:48:36;0.85;;;0.50;;
41115;SDS011;26861;51.824;4.682;2022-09-03T03:51:03;0.98;;;0.75;;
41115;SDS011;26861;51.824;4.682;2022-09-03T03:53:32;1.48;;;0.85;;
41115;SDS011;26861;51.824;4.682;2022-09-03T03:55:58;0.77;;;0.70;;
41115;SDS011;26861;51.824;4.682;2022-09-03T03:58:29;1.00;;;0.90;;
41115;SDS011;26861;51.824;4.682;2022-09-03T04:01:02;1.05;;;0.90;;
41115;SDS011;26861;51.824;4.682;2022-09-03T04:03:29;1.58;;;0.80;;
41115;SDS011;26861;51.824;4.682;2022-09-03T04:05:56;1.20;;;1.00;;
41115;SDS011;26861;51.824;4.682;2022-09-03T04:08:23;2.33;;;0.98;;
41115;SDS011;26861;51.824;4.682;2022-09-03T04:10:49;1.00;;;0.80;;
41115;SDS011;26861;51.824;4.682;2022-09-03T04:13:16;0.60;;;0.60;;
41115;SDS011;26861;51.824;4.682;2022-09-03T04:15:42;1.25;;;0.90;;
41115;SDS011;26861;51.824;4.682;2022-09-03T04:18:08;2.00;;;0.80;;
41115;SDS011;26861;51.824;4.682;2022-09-03T04:20:37;1.08;;;0.82;;
41115;SDS011;26861;51.824;4.682;2022-09-03T04:23:03;2.63;;;0.90;;
41115;SDS011;26861;51.824;4.682;2022-09-03T04:25:29;1.23;;;0.80;;
41115;SDS011;26861;51.824;4.682;2022-09-03T04:27:55;2.55;;;0.70;;
41115;SDS011;26861;51.824;4.682;2022-09-03T04:30:21;1.27;;;0.88;;
41115;SDS011;26861;51.824;4.682;2022-09-03T04:32:50;0.82;;;0.80;;
41115;SDS011;26861;51.824;4.682;2022-09-03T04:35:20;0.68;;;0.60;;
41115;SDS011;26861;51.824;4.682;2022-09-03T04:37:47;1.90;;;0.90;;
41115;SDS011;26861;51.824;4.682;2022-09-03T04:40:12;0.73;;;0.52;;
41115;SDS011;26861;51.824;4.682;2022-09-03T04:42:38;1.55;;;0.80;;
41115;SDS011;26861;51.824;4.682;2022-09-03T04:45:05;1.13;;;0.73;;
41115;SDS011;26861;51.824;4.682;2022-09-03T04:47:32;2.10;;;0.90;;
41115;SDS011;26861;51.824;4.682;2022-09-03T04:49:58;1.02;;;0.95;;
41115;SDS011;26861;51.824;4.682;2022-09-03T04:52:27;1.90;;;1.00;;
41115;SDS011;26861;51.824;4.682;2022-09-03T04:54:53;1.73;;;0.77;;
41115;SDS011;26861;51.824;4.682;2022-09-03T04:57:19;1.73;;;0.90;;
41115;SDS011;26861;51.824;4.682;2022-09-03T04:59:46;1.25;;;0.65;;
41115;SDS011;26861;51.824;4.682;2022-09-03T05:02:12;2.13;;;0.80;;
41115;SDS011;26861;51.824;4.682;2022-09-03T05:04:39;1.10;;;0.65;;
41115;SDS011;26861;51.824;4.682;2022-09-03T05:07:05;0.98;;;0.90;;
41115;SDS011;26861;51.824;4.682;2022-09-03T05:09:31;2.45;;;0.70;;
41115;SDS011;26861;51.824;4.682;2022-09-03T05:11:57;0.73;;;0.68;;
41115;SDS011;26861;51.824;4.682;2022-09-03T05:14:23;1.60;;;0.68;;
41115;SDS011;26861;51.824;4.682;2022-09-03T05:16:49;0.88;;;0.80;;
41115;SDS011;26861;51.824;4.682;2022-09-03T05:19:16;0.85;;;0.70;;
41115;SDS011;26861;51.824;4.682;2022-09-03T05:21:42;1.13;;;0.73;;
41115;SDS011;26861;51.824;4.682;2022-09-03T05:24:08;2.13;;;0.98;;
41115;SDS011;26861;51.824;4.682;2022-09-03T05:26:36;1.35;;;0.95;;
41115;SDS011;26861;51.824;4.682;2022-09-03T05:29:03;1.38;;;0.80;;
41115;SDS011;26861;51.824;4.682;2022-09-03T05:31:34;1.63;;;0.80;;
41115;SDS011;26861;51.824;4.682;2022-09-03T05:34:03;0.80;;;0.63;;
41115;SDS011;26861;51.824;4.682;2022-09-03T05:36:34;1.30;;;0.90;;
41115;SDS011;26861;51.824;4.682;2022-09-03T05:39:01;1.13;;;0.80;;
41115;SDS011;26861;51.824;4.682;2022-09-03T05:41:28;1.23;;;0.70;;
41115;SDS011;26861;51.824;4.682;2022-09-03T05:43:54;0.90;;;0.70;;
41115;SDS011;26861;51.824;4.682;2022-09-03T05:46:23;1.00;;;0.90;;
41115;SDS011;26861;51.824;4.682;2022-09-03T05:48:55;1.17;;;0.80;;
41115;SDS011;26861;51.824;4.682;2022-09-03T05:51:22;0.95;;;0.80;;
41115;SDS011;26861;51.824;4.682;2022-09-03T05:53:48;1.88;;;0.80;;
41115;SDS011;26861;51.824;4.682;2022-09-03T05:56:15;1.02;;;0.93;;
41115;SDS011;26861;51.824;4.682;2022-09-03T05:58:43;0.75;;;0.65;;
41115;SDS011;26861;51.824;4.682;2022-09-03T06:01:16;0.77;;;0.55;;
41115;SDS011;26861;51.824;4.682;2022-09-03T06:03:47;1.42;;;0.70;;
41115;SDS011;26861;51.824;4.682;2022-09-03T06:06:18;1.25;;;0.70;;
41115;SDS011;26861;51.824;4.682;2022-09-03T06:08:49;1.90;;;0.98;;
41115;SDS011;26861;51.824;4.682;2022-09-03T06:11:15;0.70;;;0.55;;
41115;SDS011;26861;51.824;4.682;2022-09-03T06:13:41;0.88;;;0.68;;
41115;SDS011;26861;51.824;4.682;2022-09-03T06:16:07;1.30;;;0.90;;
41115;SDS011;26861;51.824;4.682;2022-09-03T06:18:33;1.63;;;0.90;;
41115;SDS011;26861;51.824;4.682;2022-09-03T06:21:00;0.80;;;0.77;;
41115;SDS011;26861;51.824;4.682;2022-09-03T06:23:28;2.05;;;0.60;;
41115;SDS011;26861;51.824;4.682;2022-09-03T06:26:08;2.28;;;0.88;;
41115;SDS011;26861;51.824;4.682;2022-09-03T06:28:36;1.58;;;0.90;;
41115;SDS011;26861;51.824;4.682;2022-09-03T06:31:04;1.58;;;0.90;;
41115;SDS011;26861;51.824;4.682;2022-09-03T06:33:32;1.73;;;0.73;;
41115;SDS011;26861;51.824;4.682;2022-09-03T06:36:00;1.30;;;1.00;;
41115;SDS011;26861;51.824;4.682;2022-09-03T06:38:28;0.95;;;0.88;;
41115;SDS011;26861;51.824;4.682;2022-09-03T06:41:00;2.58;;;0.90;;
41115;SDS011;26861;51.824;4.682;2022-09-03T06:43:27;1.20;;;0.70;;
41115;SDS011;26861;51.824;4.682;2022-09-03T06:45:54;1.85;;;0.85;;
41115;SDS011;26861;51.824;4.682;2022-09-03T06:48:21;1.25;;;0.85;;
41115;SDS011;26861;51.824;4.682;2022-09-03T06:50:53;0.85;;;0.57;;
41115;SDS011;26861;51.824;4.682;2022-09-03T06:53:23;0.77;;;0.60;;
41115;SDS011;26861;51.824;4.682;2022-09-03T06:55:57;0.70;;;0.70;;
41115;SDS011;26861;51.824;4.682;2022-09-03T06:58:24;2.78;;;0.70;;
41115;SDS011;26861;51.824;4.682;2022-09-03T07:00:54;1.00;;;0.70;;
41115;SDS011;26861;51.824;4.682;2022-09-03T07:03:32;2.88;;;0.80;;
41115;SDS011;26861;51.824;4.682;2022-09-03T07:06:02;2.00;;;0.82;;
41115;SDS011;26861;51.824;4.682;2022-09-03T07:08:29;1.15;;;0.80;;
41115;SDS011;26861;51.824;4.682;2022-09-03T07:10:57;0.88;;;0.70;;
41115;SDS011;26861;51.824;4.682;2022-09-03T07:13:23;2.05;;;0.60;;
41115;SDS011;26861;51.824;4.682;2022-09-03T07:15:57;1.55;;;0.80;;
41115;SDS011;26861;51.824;4.682;2022-09-03T07:18:26;0.93;;;0.65;;
41115;SDS011;26861;51.824;4.682;2022-09-03T07:20:57;0.93;;;0.50;;
41115;SDS011;26861;51.824;4.682;2022-09-03T07:23:27;0.70;;;0.50;;
41115;SDS011;26861;51.824;4.682;2022-09-03T07:25:55;1.17;;;0.95;;
41115;SDS011;26861;51.824;4.682;2022-09-03T07:28:23;1.08;;;0.73;;
41115;SDS011;26861;51.824;4.682;2022-09-03T07:30:52;0.90;;;0.80;;
41115;SDS011;26861;51.824;4.682;2022-09-03T07:33:18;2.05;;;0.80;;
41115;SDS011;26861;51.824;4.682;2022-09-03T07:35:45;2.70;;;0.82;;
41115;SDS011;26861;51.824;4.682;2022-09-03T07:38:11;1.27;;;0.80;;
41115;SDS011;26861;51.824;4.682;2022-09-03T07:40:41;1.63;;;0.93;;
41115;SDS011;26861;51.824;4.682;2022-09-03T07:43:07;1.73;;;0.80;;
41115;SDS011;26861;51.824;4.682;2022-09-03T07:45:34;0.98;;;0.90;;
41115;SDS011;26861;51.824;4.682;2022-09-03T07:48:01;1.58;;;0.90;;
41115;SDS011;26861;51.824;4.682;2022-09-03T07:50:27;1.30;;;0.80;;
41115;SDS011;26861;51.824;4.682;2022-09-03T07:52:56;3.30;;;0.75;;
41115;SDS011;26861;51.824;4.682;2022-09-03T07:55:23;5.45;;;1.10;;
41115;SDS011;26861;51.824;4.682;2022-09-03T07:57:49;0.65;;;0.65;;
41115;SDS011;26861;51.824;4.682;2022-09-03T08:00:15;0.80;;;0.80;;
41115;SDS011;26861;51.824;4.682;2022-09-03T08:02:41;4.25;;;0.70;;
41115;SDS011;26861;51.824;4.682;2022-09-03T08:05:08;2.38;;;0.98;;
41115;SDS011;26861;51.824;4.682;2022-09-03T08:07:34;2.25;;;0.80;;
41115;SDS011;26861;51.824;4.682;2022-09-03T08:10:00;3.28;;;0.82;;
41115;SDS011;26861;51.824;4.682;2022-09-03T08:12:26;2.05;;;1.00;;
41115;SDS011;26861;51.824;4.682;2022-09-03T08:14:52;2.65;;;0.90;;
41115;SDS011;26861;51.824;4.682;2022-09-03T08:17:18;1.60;;;0.80;;
41115;SDS011;26861;51.824;4.682;2022-09-03T08:19:44;2.88;;;0.93;;
41115;SDS011;26861;51.824;4.682;2022-09-03T08:22:11;2.10;;;0.63;;
41115;SDS011;26861;51.824;4.682;2022-09-03T08:24:37;2.22;;;0.90;;
41115;SDS011;26861;51.824;4.682;2022-09-03T08:27:03;2.72;;;0.80;;
41115;SDS011;26861;51.824;4.682;2022-09-03T08:29:29;6.45;;;1.25;;
41115;SDS011;26861;51.824;4.682;2022-09-03T08:31:55;4.57;;;1.00;;
41115;SDS011;26861;51.824;4.682;2022-09-03T08:34:21;2.22;;;1.05;;
41115;SDS011;26861;51.824;4.682;2022-09-03T08:36:47;4.53;;;1.00;;
41115;SDS011;26861;51.824;4.682;2022-09-03T08:39:14;2.17;;;0.88;;
41115;SDS011;26861;51.824;4.682;2022-09-03T08:46:59;3.53;;;0.65;;
41115;SDS011;26861;51.824;4.682;2022-09-03T08:49:44;2.10;;;0.88;;
41115;SDS011;26861;51.824;4.682;2022-09-03T08:57:50;7.80;;;1.33;;
41115;SDS011;26861;51.824;4.682;2022-09-03T09:00:21;1.98;;;1.05;;
41115;SDS011;26861;51.824;4.682;2022-09-03T09:05:18;2.03;;;0.70;;
41115;SDS011;26861;51.824;4.682;2022-09-03T09:07:50;1.77;;;0.75;;
41115;SDS011;26861;51.824;4.682;2022-09-03T09:10:25;4.13;;;1.10;;
41115;SDS011;26861;51.824;4.682;2022-09-03T09:18:42;4.25;;;1.20;;
41115;SDS011;26861;51.824;4.682;2022-09-03T09:21:38;5.53;;;1.35;;
41115;SDS011;26861;51.824;4.682;2022-09-03T09:24:12;2.13;;;1.10;;
41115;SDS011;26861;51.824;4.682;2022-09-03T09:26:48;6.72;;;1.60;;
41115;SDS011;26861;51.824;4.682;2022-09-03T09:29:25;4.65;;;1.42;;
41115;SDS011;26861;51.824;4.682;2022-09-03T09:31:53;5.03;;;1.73;;
41115;SDS011;26861;51.824;4.682;2022-09-03T09:34:19;1.88;;;1.20;;
41115;SDS011;26861;51.824;4.682;2022-09-03T09:39:12;6.43;;;1.40;;
41115;SDS011;26861;51.824;4.682;2022-09-03T09:41:40;2.35;;;1.10;;
41115;SDS011;26861;51.824;4.682;2022-09-03T09:44:06;3.55;;;1.20;;
41115;SDS011;26861;51.824;4.682;2022-09-03T09:46:36;7.40;;;1.63;;
41115;SDS011;26861;51.824;4.682;2022-09-03T09:49:50;2.10;;;0.90;;
41115;SDS011;26861;51.824;4.682;2022-09-03T09:52:04;2.22;;;1.50;;
41115;SDS011;26861;51.824;4.682;2022-09-03T09:54:38;2.10;;;1.25;;
41115;SDS011;26861;51.824;4.682;2022-09-03T09:57:05;3.05;;;1.35;;
41115;SDS011;26861;51.824;4.682;2022-09-03T09:59:33;1.88;;;1.00;;
41115;SDS011;26861;51.824;4.682;2022-09-03T10:02:12;3.97;;;1.65;;
41115;SDS011;26861;51.824;4.682;2022-09-03T10:04:39;5.60;;;1.27;;
41115;SDS011;26861;51.824;4.682;2022-09-03T10:10:00;5.20;;;1.20;;
41115;SDS011;26861;51.824;4.682;2022-09-03T10:12:38;2.88;;;1.38;;
41115;SDS011;26861;51.824;4.682;2022-09-03T10:20:47;8.15;;;1.67;;
41115;SDS011;26861;51.824;4.682;2022-09-03T10:23:21;4.82;;;1.20;;
41115;SDS011;26861;51.824;4.682;2022-09-03T10:28:17;7.13;;;1.30;;
41115;SDS011;26861;51.824;4.682;2022-09-03T10:33:18;7.53;;;1.55;;
41115;SDS011;26861;51.824;4.682;2022-09-03T10:35:51;6.45;;;1.48;;
41115;SDS011;26861;51.824;4.682;2022-09-03T10:49:23;4.60;;;1.30;;
41115;SDS011;26861;51.824;4.682;2022-09-03T10:52:27;4.32;;;1.65;;
41115;SDS011;26861;51.824;4.682;2022-09-03T11:00:15;3.70;;;1.33;;
41115;SDS011;26861;51.824;4.682;2022-09-03T11:03:18;6.90;;;1.38;;
41115;SDS011;26861;51.824;4.682;2022-09-03T11:06:07;4.97;;;1.52;;
41115;SDS011;26861;51.824;4.682;2022-09-03T11:11:19;3.38;;;1.08;;
41115;SDS011;26861;51.824;4.682;2022-09-03T11:13:53;3.78;;;1.23;;
41115;SDS011;26861;51.824;4.682;2022-09-03T11:16:33;2.17;;;1.00;;
41115;SDS011;26861;51.824;4.682;2022-09-03T11:19:09;2.58;;;1.30;;
41115;SDS011;26861;51.824;4.682;2022-09-03T11:21:42;4.38;;;1.20;;
41115;SDS011;26861;51.824;4.682;2022-09-03T11:26:34;4.63;;;1.58;;
41115;SDS011;26861;51.824;4.682;2022-09-03T11:29:16;3.05;;;1.17;;
41115;SDS011;26861;51.824;4.682;2022-09-03T11:32:04;2.03;;;1.38;;
41115;SDS011;26861;51.824;4.682;2022-09-03T11:34:48;5.07;;;1.65;;
41115;SDS011;26861;51.824;4.682;2022-09-03T11:39:42;2.70;;;1.48;;
41115;SDS011;26861;51.824;4.682;2022-09-03T11:42:09;6.22;;;1.27;;
41115;SDS011;26861;51.824;4.682;2022-09-03T11:44:40;4.15;;;1.50;;
41115;SDS011;26861;51.824;4.682;2022-09-03T11:47:15;3.05;;;1.23;;
41115;SDS011;26861;51.824;4.682;2022-09-03T11:49:50;2.88;;;1.63;;
41115;SDS011;26861;51.824;4.682;2022-09-03T11:52:30;3.63;;;1.10;;
41115;SDS011;26861;51.824;4.682;2022-09-03T11:54:56;2.72;;;1.70;;
41115;SDS011;26861;51.824;4.682;2022-09-03T11:57:41;4.60;;;0.98;;
41115;SDS011;26861;51.824;4.682;2022-09-03T12:00:08;4.50;;;1.27;;
41115;SDS011;26861;51.824;4.682;2022-09-03T12:02:49;1.77;;;1.33;;
41115;SDS011;26861;51.824;4.682;2022-09-03T12:05:29;2.78;;;1.25;;
41115;SDS011;26861;51.824;4.682;2022-09-03T12:16:24;3.53;;;1.33;;
41115;SDS011;26861;51.824;4.682;2022-09-03T12:18:53;3.72;;;1.27;;
41115;SDS011;26861;51.824;4.682;2022-09-03T12:21:24;5.55;;;1.50;;
41115;SDS011;26861;51.824;4.682;2022-09-03T12:23:50;2.58;;;1.73;;
41115;SDS011;26861;51.824;4.682;2022-09-03T12:26:19;2.33;;;1.48;;
41115;SDS011;26861;51.824;4.682;2022-09-03T12:28:57;5.38;;;1.40;;
41115;SDS011;26861;51.824;4.682;2022-09-03T12:31:31;3.03;;;1.20;;
41115;SDS011;26861;51.824;4.682;2022-09-03T12:34:09;2.90;;;1.10;;
41115;SDS011;26861;51.824;4.682;2022-09-03T12:36:38;4.53;;;1.50;;
41115;SDS011;26861;51.824;4.682;2022-09-03T12:39:24;2.72;;;1.58;;
41115;SDS011;26861;51.824;4.682;2022-09-03T12:47:10;1.77;;;1.33;;
41115;SDS011;26861;51.824;4.682;2022-09-03T12:49:37;3.60;;;1.38;;
41115;SDS011;26861;51.824;4.682;2022-09-03T12:52:50;3.20;;;1.40;;
41115;SDS011;26861;51.824;4.682;2022-09-03T12:54:58;3.75;;;0.93;;
41115;SDS011;26861;51.824;4.682;2022-09-03T12:57:31;4.80;;;1.45;;
41115;SDS011;26861;51.824;4.682;2022-09-03T13:00:08;3.67;;;1.30;;
41115;SDS011;26861;51.824;4.682;2022-09-03T13:02:43;3.78;;;1.63;;
41115;SDS011;26861;51.824;4.682;2022-09-03T13:05:21;3.30;;;1.48;;
41115;SDS011;26861;51.824;4.682;2022-09-03T13:07:53;2.72;;;1.70;;
41115;SDS011;26861;51.824;4.682;2022-09-03T13:10:26;2.13;;;1.42;;
41115;SDS011;26861;51.824;4.682;2022-09-03T13:12:58;2.47;;;1.35;;
41115;SDS011;26861;51.824;4.682;2022-09-03T13:15:25;3.95;;;1.60;;
41115;SDS011;26861;51.824;4.682;2022-09-03T13:20:32;2.13;;;1.60;;
41115;SDS011;26861;51.824;4.682;2022-09-03T13:23:11;1.92;;;1.60;;
41115;SDS011;26861;51.824;4.682;2022-09-03T13:26:03;2.10;;;1.67;;
41115;SDS011;26861;51.824;4.682;2022-09-03T13:33:47;3.03;;;1.50;;
41115;SDS011;26861;51.824;4.682;2022-09-03T13:36:27;1.80;;;1.23;;
41115;SDS011;26861;51.824;4.682;2022-09-03T13:38:59;3.40;;;1.60;;
41115;SDS011;26861;51.824;4.682;2022-09-03T13:44:19;5.93;;;1.80;;
41115;SDS011;26861;51.824;4.682;2022-09-03T13:47:00;1.88;;;1.30;;
41115;SDS011;26861;51.824;4.682;2022-09-03T13:52:35;2.08;;;1.45;;
41115;SDS011;26861;51.824;4.682;2022-09-03T14:00:31;2.55;;;1.38;;
41115;SDS011;26861;51.824;4.682;2022-09-03T14:03:09;3.47;;;1.50;;
41115;SDS011;26861;51.824;4.682;2022-09-03T14:08:22;1.35;;;1.17;;
41115;SDS011;26861;51.824;4.682;2022-09-03T14:11:14;2.75;;;1.40;;
41115;SDS011;26861;51.824;4.682;2022-09-03T14:16:28;2.70;;;1.42;;
41115;SDS011;26861;51.824;4.682;2022-09-03T14:21:43;2.30;;;1.48;;
41115;SDS011;26861;51.824;4.682;2022-09-03T14:24:18;3.67;;;1.60;;
41115;SDS011;26861;51.824;4.682;2022-09-03T14:26:51;2.40;;;1.50;;
41115;SDS011;26861;51.824;4.682;2022-09-03T14:29:29;3.20;;;1.40;;
41115;SDS011;26861;51.824;4.682;2022-09-03T14:59:45;1.52;;;1.42;;
41115;SDS011;26861;51.824;4.682;2022-09-03T15:10:49;1.50;;;1.10;;
41115;SDS011;26861;51.824;4.682;2022-09-03T15:18:41;2.10;;;1.05;;
41115;SDS011;26861;51.824;4.682;2022-09-03T15:21:38;4.22;;;1.48;;
41115;SDS011;26861;51.824;4.682;2022-09-03T15:29:50;2.30;;;1.20;;
41115;SDS011;26861;51.824;4.682;2022-09-03T15:32:29;5.22;;;1.67;;
41115;SDS011;26861;51.824;4.682;2022-09-03T15:38:12;5.88;;;1.60;;
41115;SDS011;26861;51.824;4.682;2022-09-03T15:40:49;1.60;;;1.23;;
41115;SDS011;26861;51.824;4.682;2022-09-03T15:43:26;4.20;;;1.52;;
41115;SDS011;26861;51.824;4.682;2022-09-03T15:45:55;5.53;;;1.17;;
41115;SDS011;26861;51.824;4.682;2022-09-03T15:48:44;4.40;;;1.63;;
41115;SDS011;26861;51.824;4.682;2022-09-03T15:57:08;2.03;;;1.55;;
41115;SDS011;26861;51.824;4.682;2022-09-03T15:59:40;1.65;;;1.13;;
41115;SDS011;26861;51.824;4.682;2022-09-03T16:02:11;3.88;;;1.40;;
41115;SDS011;26861;51.824;4.682;2022-09-03T16:12:32;3.97;;;1.67;;
41115;SDS011;26861;51.824;4.682;2022-09-03T16:15:13;1.90;;;1.10;;
41115;SDS011;26861;51.824;4.682;2022-09-03T16:17:44;2.50;;;1.23;;
41115;SDS011;26861;51.824;4.682;2022-09-03T16:23:04;3.00;;;1.60;;
41115;SDS011;26861;51.824;4.682;2022-09-03T16:25:51;5.10;;;1.55;;
41115;SDS011;26861;51.824;4.682;2022-09-03T16:31:18;2.40;;;1.40;;
41115;SDS011;26861;51.824;4.682;2022-09-03T16:37:08;1.35;;;1.20;;
41115;SDS011;26861;51.824;4.682;2022-09-03T16:39:56;3.97;;;1.42;;
41115;SDS011;26861;51.824;4.682;2022-09-03T16:44:58;2.03;;;1.40;;
41115;SDS011;26861;51.824;4.682;2022-09-03T17:04:25;5.38;;;1.40;;
41115;SDS011;26861;51.824;4.682;2022-09-03T17:09:41;2.92;;;1.38;;
41115;SDS011;26861;51.824;4.682;2022-09-03T17:15:15;3.78;;;2.03;;
41115;SDS011;26861;51.824;4.682;2022-09-03T17:20:24;3.47;;;1.63;;
41115;SDS011;26861;51.824;4.682;2022-09-03T17:36:15;2.95;;;1.88;;
41115;SDS011;26861;51.824;4.682;2022-09-03T17:50:25;3.13;;;1.60;;
41115;SDS011;26861;51.824;4.682;2022-09-03T17:52:54;4.30;;;1.73;;
41115;SDS011;26861;51.824;4.682;2022-09-03T17:55:41;2.83;;;1.77;;
41115;SDS011;26861;51.824;4.682;2022-09-03T17:58:33;7.20;;;1.50;;
41115;SDS011;26861;51.824;4.682;2022-09-03T18:09:06;3.30;;;1.58;;
41115;SDS011;26861;51.824;4.682;2022-09-03T18:11:48;3.30;;;1.52;;
41115;SDS011;26861;51.824;4.682;2022-09-03T18:14:29;4.13;;;1.40;;
41115;SDS011;26861;51.824;4.682;2022-09-03T18:19:33;4.13;;;2.03;;
41115;SDS011;26861;51.824;4.682;2022-09-03T18:22:21;2.35;;;1.10;;
41115;SDS011;26861;51.824;4.682;2022-09-03T18:25:13;2.60;;;1.48;;
41115;SDS011;26861;51.824;4.682;2022-09-03T18:28:03;4.90;;;2.00;;
41115;SDS011;26861;51.824;4.682;2022-09-03T18:30:52;3.22;;;1.52;;
41115;SDS011;26861;51.824;4.682;2022-09-03T18:33:37;2.00;;;1.33;;
41115;SDS011;26861;51.824;4.682;2022-09-03T18:36:22;1.90;;;1.27;;
41115;SDS011;26861;51.824;4.682;2022-09-03T18:45:31;1.15;;;1.00;;
41115;SDS011;26861;51.824;4.682;2022-09-03T18:57:19;2.28;;;1.25;;
41115;SDS011;26861;51.824;4.682;2022-09-03T19:03:01;3.80;;;1.33;;
41115;SDS011;26861;51.824;4.682;2022-09-03T19:09:18;2.28;;;1.33;;
41115;SDS011;26861;51.824;4.682;2022-09-03T19:15:35;3.15;;;1.50;;
41115;SDS011;26861;51.824;4.682;2022-09-03T19:21:34;2.90;;;1.02;;
41115;SDS011;26861;51.824;4.682;2022-09-03T19:24:25;4.78;;;1.25;;
41115;SDS011;26861;51.824;4.682;2022-09-03T19:27:24;5.82;;;1.25;;
41115;SDS011;26861;51.824;4.682;2022-09-03T19:30:15;2.63;;;1.30;;
41115;SDS011;26861;51.824;4.682;2022-09-03T19:45:30;3.17;;;1.40;;
41115;SDS011;26861;51.824;4.682;2022-09-03T19:51:42;2.78;;;1.40;;
41115;SDS011;26861;51.824;4.682;2022-09-03T19:54:35;1.65;;;1.02;;
41115;SDS011;26861;51.824;4.682;2022-09-03T19:57:20;2.25;;;1.30;;
41115;SDS011;26861;51.824;4.682;2022-09-03T20:00:06;3.45;;;1.38;;
41115;SDS011;26861;51.824;4.682;2022-09-03T20:02:51;3.42;;;1.17;;
41115;SDS011;26861;51.824;4.682;2022-09-03T20:05:35;2.80;;;1.33;;
41115;SDS011;26861;51.824;4.682;2022-09-03T20:08:20;3.58;;;1.38;;
41115;SDS011;26861;51.824;4.682;2022-09-03T20:11:09;3.60;;;1.50;;
41115;SDS011;26861;51.824;4.682;2022-09-03T20:13:42;1.40;;;1.30;;
41115;SDS011;26861;51.824;4.682;2022-09-03T20:16:31;2.55;;;1.30;;
41115;SDS011;26861;51.824;4.682;2022-09-03T20:27:04;3.38;;;1.90;;
41115;SDS011;26861;51.824;4.682;2022-09-03T20:35:07;1.70;;;1.23;;
41115;SDS011;26861;51.824;4.682;2022-09-03T20:37:41;2.05;;;1.40;;
41115;SDS011;26861;51.824;4.682;2022-09-03T20:40:36;1.50;;;1.40;;
41115;SDS011;26861;51.824;4.682;2022-09-03T20:45:42;1.95;;;1.60;;
41115;SDS011;26861;51.824;4.682;2022-09-03T20:49:04;1.63;;;1.45;;
41115;SDS011;26861;51.824;4.682;2022-09-03T20:52:09;1.80;;;1.40;;
41115;SDS011;26861;51.824;4.682;2022-09-03T20:54:28;3.25;;;1.67;;
41115;SDS011;26861;51.824;4.682;2022-09-03T20:57:14;3.30;;;1.63;;
41115;SDS011;26861;51.824;4.682;2022-09-03T21:05:15;2.92;;;1.50;;
41115;SDS011;26861;51.824;4.682;2022-09-03T21:10:46;3.08;;;1.80;;
41115;SDS011;26861;51.824;4.682;2022-09-03T21:13:32;1.50;;;1.40;;
41115;SDS011;26861;51.824;4.682;2022-09-03T21:22:14;2.83;;;1.80;;
41115;SDS011;26861;51.824;4.682;2022-09-03T21:27:11;2.50;;;1.40;;
41115;SDS011;26861;51.824;4.682;2022-09-03T21:30:04;3.63;;;1.67;;
41115;SDS011;26861;51.824;4.682;2022-09-03T21:32:43;3.88;;;1.70;;
41115;SDS011;26861;51.824;4.682;2022-09-03T21:38:06;2.35;;;1.67;;
41115;SDS011;26861;51.824;4.682;2022-09-03T21:40:37;2.20;;;1.45;;
41115;SDS011;26861;51.824;4.682;2022-09-03T21:43:12;7.60;;;1.40;;
41115;SDS011;26861;51.824;4.682;2022-09-03T21:45:49;3.75;;;1.95;;
41115;SDS011;26861;51.824;4.682;2022-09-03T21:48:36;3.78;;;2.00;;